sensor_id;sensor_type;location;lat;lon;timestamp;pressure;altitude;pressure_sealevel;temperature;humidity
12475;BME280;6302;42.624;23.334;2023-04-26T00:00:12;92389.22;;;9.31;100.00
12475;BME280;6302;42.624;23.334;2023-04-26T00:02:39;92383.22;;;9.31;100.00
12475;BME280;6302;42.624;23.334;2023-04-26T00:05:06;92380.34;;;9.22;100.00
12475;BME280;6302;42.624;23.334;2023-04-26T00:07:33;92368.66;;;9.19;100.00
12475;BME280;6302;42.624;23.334;2023-04-26T00:10:02;92372.53;;;9.14;100.00
12475;BME280;6302;42.624;23.334;2023-04-26T00:12:30;92368.47;;;9.10;100.00
12475;BME280;6302;42.624;23.334;2023-04-26T00:14:57;92363.22;;;9.06;100.00
12475;BME280;6302;42.624;23.334;2023-04-26T00:17:24;92362.13;;;9.04;100.00
12475;BME280;6302;42.624;23.334;2023-04-26T00:19:50;92354.63;;;9.02;100.00
12475;BME280;6302;42.624;23.334;2023-04-26T00:22:17;92357.25;;;9.02;100.00
12475;BME280;6302;42.624;23.334;2023-04-26T00:24:44;92353.59;;;8.96;100.00
12475;BME280;6302;42.624;23.334;2023-04-26T00:27:11;92353.31;;;8.91;100.00
12475;BME280;6302;42.624;23.334;2023-04-26T00:29:39;92347.00;;;8.85;100.00
12475;BME280;6302;42.624;23.334;2023-04-26T00:32:06;92339.53;;;8.80;100.00
12475;BME280;6302;42.624;23.334;2023-04-26T00:34:33;92338.84;;;8.76;100.00
12475;BME280;6302;42.624;23.334;2023-04-26T00:37:01;92334.03;;;8.71;100.00
12475;BME280;6302;42.624;23.334;2023-04-26T00:39:28;92328.44;;;8.65;100.00
12475;BME280;6302;42.624;23.334;2023-04-26T00:41:55;92333.06;;;8.61;100.00
12475;BME280;6302;42.624;23.334;2023-04-26T00:44:22;92334.66;;;8.55;100.00
12475;BME280;6302;42.624;23.334;2023-04-26T00:46:52;92338.09;;;8.52;100.00
12475;BME280;6302;42.624;23.334;2023-04-26T00:49:22;92334.00;;;8.47;100.00
12475;BME280;6302;42.624;23.334;2023-04-26T00:51:50;92336.34;;;8.42;100.00
12475;BME280;6302;42.624;23.334;2023-04-26T00:54:18;92329.63;;;8.37;100.00
12475;BME280;6302;42.624;23.334;2023-04-26T00:56:46;92334.91;;;8.37;100.00
12475;BME280;6302;42.624;23.334;2023-04-26T00:59:17;92334.22;;;8.33;100.00
12475;BME280;6302;42.624;23.334;2023-04-26T01:01:44;92335.03;;;8.30;100.00
12475;BME280;6302;42.624;23.334;2023-04-26T01:04:12;92338.47;;;8.27;100.00
12475;BME280;6302;42.624;23.334;2023-04-26T01:06:39;92344.53;;;8.24;100.00
12475;BME280;6302;42.624;23.334;2023-04-26T01:09:06;92343.03;;;8.23;100.00
12475;BME280;6302;42.624;23.334;2023-04-26T01:11:35;92346.88;;;8.19;100.00
12475;BME280;6302;42.624;23.334;2023-04-26T01:14:03;92344.59;;;8.17;100.00
12475;BME280;6302;42.624;23.334;2023-04-26T01:16:30;92349.53;;;8.15;100.00
12475;BME280;6302;42.624;23.334;2023-04-26T01:19:06;92339.09;;;8.08;100.00
12475;BME280;6302;42.624;23.334;2023-04-26T01:21:35;92327.06;;;8.07;100.00
12475;BME280;6302;42.624;23.334;2023-04-26T01:24:04;92330.84;;;8.06;100.00
12475;BME280;6302;42.624;23.334;2023-04-26T01:26:31;92324.06;;;8.05;100.00
12475;BME280;6302;42.624;23.334;2023-04-26T01:28:58;92324.13;;;8.02;100.00
12475;BME280;6302;42.624;23.334;2023-04-26T01:31:26;92326.78;;;7.98;100.00
12475;BME280;6302;42.624;23.334;2023-04-26T01:33:52;92334.38;;;7.96;100.00
12475;BME280;6302;42.624;23.334;2023-04-26T01:36:19;92337.09;;;7.89;100.00
12475;BME280;6302;42.624;23.334;2023-04-26T01:38:46;92334.47;;;7.89;100.00
12475;BME280;6302;42.624;23.334;2023-04-26T01:41:14;92334.25;;;7.76;100.00
12475;BME280;6302;42.624;23.334;2023-04-26T01:43:41;92339.88;;;7.78;100.00
12475;BME280;6302;42.624;23.334;2023-04-26T01:46:08;92350.09;;;7.73;100.00
12475;BME280;6302;42.624;23.334;2023-04-26T01:48:35;92344.44;;;7.74;100.00
12475;BME280;6302;42.624;23.334;2023-04-26T01:51:02;92343.28;;;7.75;100.00
12475;BME280;6302;42.624;23.334;2023-04-26T01:53:29;92336.13;;;7.76;100.00
12475;BME280;6302;42.624;23.334;2023-04-26T01:55:56;92333.47;;;7.79;100.00
12475;BME280;6302;42.624;23.334;2023-04-26T01:58:27;92325.16;;;7.81;100.00
12475;BME280;6302;42.624;23.334;2023-04-26T02:00:53;92330.38;;;7.84;100.00
12475;BME280;6302;42.624;23.334;2023-04-26T02:03:20;92329.63;;;7.84;100.00
12475;BME280;6302;42.624;23.334;2023-04-26T02:05:47;92327.41;;;7.82;100.00
12475;BME280;6302;42.624;23.334;2023-04-26T02:08:14;92324.38;;;7.80;100.00
12475;BME280;6302;42.624;23.334;2023-04-26T02:10:40;92328.56;;;7.78;100.00
12475;BME280;6302;42.624;23.334;2023-04-26T02:13:07;92328.97;;;7.76;100.00
12475;BME280;6302;42.624;23.334;2023-04-26T02:15:35;92323.28;;;7.78;100.00
12475;BME280;6302;42.624;23.334;2023-04-26T02:18:03;92315.75;;;7.80;100.00
12475;BME280;6302;42.624;23.334;2023-04-26T02:20:29;92311.59;;;7.79;100.00
12475;BME280;6302;42.624;23.334;2023-04-26T02:22:56;92319.53;;;7.79;100.00
12475;BME280;6302;42.624;23.334;2023-04-26T02:25:23;92318.38;;;7.80;100.00
12475;BME280;6302;42.624;23.334;2023-04-26T02:27:50;92322.50;;;7.81;100.00
12475;BME280;6302;42.624;23.334;2023-04-26T02:30:17;92319.88;;;7.81;100.00
12475;BME280;6302;42.624;23.334;2023-04-26T02:32:45;92328.13;;;7.83;100.00
12475;BME280;6302;42.624;23.334;2023-04-26T02:35:12;92324.69;;;7.86;100.00
12475;BME280;6302;42.624;23.334;2023-04-26T02:37:39;92315.31;;;7.85;100.00
12475;BME280;6302;42.624;23.334;2023-04-26T02:40:07;92318.19;;;7.94;100.00
12475;BME280;6302;42.624;23.334;2023-04-26T02:42:35;92310.97;;;7.98;100.00
12475;BME280;6302;42.624;23.334;2023-04-26T02:45:02;92307.53;;;8.01;100.00
12475;BME280;6302;42.624;23.334;2023-04-26T02:47:29;92296.97;;;8.01;100.00
12475;BME280;6302;42.624;23.334;2023-04-26T02:49:57;92302.59;;;8.03;100.00
12475;BME280;6302;42.624;23.334;2023-04-26T02:52:24;92292.47;;;8.02;100.00
12475;BME280;6302;42.624;23.334;2023-04-26T02:54:51;92298.41;;;8.06;100.00
12475;BME280;6302;42.624;23.334;2023-04-26T02:57:19;92293.47;;;8.08;100.00
12475;BME280;6302;42.624;23.334;2023-04-26T02:59:45;92300.59;;;8.11;100.00
12475;BME280;6302;42.624;23.334;2023-04-26T03:02:12;92305.84;;;8.14;100.00
12475;BME280;6302;42.624;23.334;2023-04-26T03:04:39;92300.56;;;8.14;100.00
12475;BME280;6302;42.624;23.334;2023-04-26T03:07:07;92311.81;;;8.18;100.00
12475;BME280;6302;42.624;23.334;2023-04-26T03:09:34;92301.22;;;8.22;100.00
12475;BME280;6302;42.624;23.334;2023-04-26T03:12:03;92285.53;;;8.11;100.00
12475;BME280;6302;42.624;23.334;2023-04-26T03:14:30;92298.19;;;8.20;100.00
12475;BME280;6302;42.624;23.334;2023-04-26T03:16:57;92293.44;;;8.11;100.00
12475;BME280;6302;42.624;23.334;2023-04-26T03:19:25;92299.06;;;8.13;100.00
12475;BME280;6302;42.624;23.334;2023-04-26T03:21:52;92294.56;;;8.10;100.00
12475;BME280;6302;42.624;23.334;2023-04-26T03:24:21;92298.28;;;8.16;100.00
12475;BME280;6302;42.624;23.334;2023-04-26T03:26:48;92298.94;;;8.20;100.00
12475;BME280;6302;42.624;23.334;2023-04-26T03:29:15;92292.88;;;8.23;100.00
12475;BME280;6302;42.624;23.334;2023-04-26T03:31:42;92306.41;;;8.25;100.00
12475;BME280;6302;42.624;23.334;2023-04-26T03:34:09;92304.91;;;8.28;100.00
12475;BME280;6302;42.624;23.334;2023-04-26T03:36:36;92312.03;;;8.31;100.00
12475;BME280;6302;42.624;23.334;2023-04-26T03:39:02;92310.47;;;8.33;100.00
12475;BME280;6302;42.624;23.334;2023-04-26T03:41:31;92310.41;;;8.37;100.00
12475;BME280;6302;42.624;23.334;2023-04-26T03:44:00;92309.56;;;8.43;100.00
12475;BME280;6302;42.624;23.334;2023-04-26T03:46:27;92308.78;;;8.46;100.00
12475;BME280;6302;42.624;23.334;2023-04-26T03:48:53;92315.06;;;8.52;100.00
12475;BME280;6302;42.624;23.334;2023-04-26T03:51:20;92304.38;;;8.60;100.00
12475;BME280;6302;42.624;23.334;2023-04-26T03:53:47;92309.50;;;8.70;100.00
12475;BME280;6302;42.624;23.334;2023-04-26T03:56:14;92317.59;;;8.83;100.00
12475;BME280;6302;42.624;23.334;2023-04-26T03:58:43;92297.00;;;8.94;100.00
12475;BME280;6302;42.624;23.334;2023-04-26T04:01:10;92302.44;;;9.06;100.00
12475;BME280;6302;42.624;23.334;2023-04-26T04:03:36;92308.63;;;9.20;100.00
12475;BME280;6302;42.624;23.334;2023-04-26T04:06:04;92326.53;;;9.32;100.00
12475;BME280;6302;42.624;23.334;2023-04-26T04:08:31;92316.22;;;9.37;100.00
12475;BME280;6302;42.624;23.334;2023-04-26T04:10:58;92328.16;;;9.45;100.00
12475;BME280;6302;42.624;23.334;2023-04-26T04:13:25;92334.25;;;9.42;100.00
12475;BME280;6302;42.624;23.334;2023-04-26T04:15:53;92335.88;;;9.36;100.00
12475;BME280;6302;42.624;23.334;2023-04-26T04:18:21;92331.94;;;9.25;100.00
12475;BME280;6302;42.624;23.334;2023-04-26T04:20:47;92340.28;;;9.23;100.00
12475;BME280;6302;42.624;23.334;2023-04-26T04:23:14;92337.50;;;9.10;100.00
12475;BME280;6302;42.624;23.334;2023-04-26T04:25:42;92328.81;;;9.10;100.00
12475;BME280;6302;42.624;23.334;2023-04-26T04:28:10;92337.28;;;9.21;100.00
12475;BME280;6302;42.624;23.334;2023-04-26T04:30:37;92341.50;;;9.38;100.00
12475;BME280;6302;42.624;23.334;2023-04-26T04:33:05;92346.13;;;9.54;100.00
12475;BME280;6302;42.624;23.334;2023-04-26T04:35:32;92341.78;;;9.63;100.00
12475;BME280;6302;42.624;23.334;2023-04-26T04:37:59;92353.06;;;9.67;100.00
12475;BME280;6302;42.624;23.334;2023-04-26T04:40:26;92354.75;;;9.77;100.00
12475;BME280;6302;42.624;23.334;2023-04-26T04:42:53;92351.03;;;9.55;100.00
12475;BME280;6302;42.624;23.334;2023-04-26T04:45:20;92344.66;;;9.33;100.00
12475;BME280;6302;42.624;23.334;2023-04-26T04:47:47;92354.31;;;9.20;100.00
12475;BME280;6302;42.624;23.334;2023-04-26T04:50:15;92354.78;;;9.15;100.00
12475;BME280;6302;42.624;23.334;2023-04-26T04:52:42;92344.81;;;9.03;100.00
12475;BME280;6302;42.624;23.334;2023-04-26T04:55:09;92354.16;;;9.07;100.00
12475;BME280;6302;42.624;23.334;2023-04-26T04:57:35;92339.97;;;8.98;100.00
12475;BME280;6302;42.624;23.334;2023-04-26T05:00:03;92360.06;;;9.15;100.00
12475;BME280;6302;42.624;23.334;2023-04-26T05:02:34;92349.06;;;9.16;100.00
12475;BME280;6302;42.624;23.334;2023-04-26T05:05:02;92353.84;;;9.25;100.00
12475;BME280;6302;42.624;23.334;2023-04-26T05:07:31;92348.09;;;9.30;100.00
12475;BME280;6302;42.624;23.334;2023-04-26T05:09:58;92350.53;;;9.41;100.00
12475;BME280;6302;42.624;23.334;2023-04-26T05:12:25;92354.88;;;9.51;100.00
12475;BME280;6302;42.624;23.334;2023-04-26T05:14:52;92358.44;;;9.60;100.00
12475;BME280;6302;42.624;23.334;2023-04-26T05:17:19;92360.75;;;9.58;100.00
12475;BME280;6302;42.624;23.334;2023-04-26T05:19:46;92360.56;;;9.49;100.00
12475;BME280;6302;42.624;23.334;2023-04-26T05:22:12;92361.38;;;9.46;100.00
12475;BME280;6302;42.624;23.334;2023-04-26T05:24:45;92365.06;;;9.52;100.00
12475;BME280;6302;42.624;23.334;2023-04-26T05:27:12;92360.09;;;9.54;100.00
12475;BME280;6302;42.624;23.334;2023-04-26T05:29:39;92371.22;;;9.65;100.00
12475;BME280;6302;42.624;23.334;2023-04-26T05:32:06;92365.81;;;9.72;100.00
12475;BME280;6302;42.624;23.334;2023-04-26T05:34:33;92367.97;;;9.77;100.00
12475;BME280;6302;42.624;23.334;2023-04-26T05:37:01;92359.16;;;10.00;100.00
12475;BME280;6302;42.624;23.334;2023-04-26T05:39:28;92370.28;;;10.11;100.00
12475;BME280;6302;42.624;23.334;2023-04-26T05:41:57;92373.91;;;10.21;100.00
12475;BME280;6302;42.624;23.334;2023-04-26T05:44:24;92382.84;;;10.27;100.00
12475;BME280;6302;42.624;23.334;2023-04-26T05:46:51;92380.69;;;10.22;100.00
12475;BME280;6302;42.624;23.334;2023-04-26T05:49:18;92389.78;;;10.21;100.00
12475;BME280;6302;42.624;23.334;2023-04-26T05:51:44;92379.38;;;10.30;100.00
12475;BME280;6302;42.624;23.334;2023-04-26T05:54:11;92383.28;;;10.41;100.00
12475;BME280;6302;42.624;23.334;2023-04-26T05:56:38;92376.28;;;10.51;100.00
12475;BME280;6302;42.624;23.334;2023-04-26T05:59:07;92389.09;;;10.53;100.00
12475;BME280;6302;42.624;23.334;2023-04-26T06:01:33;92382.97;;;10.56;100.00
12475;BME280;6302;42.624;23.334;2023-04-26T06:04:00;92387.69;;;10.64;100.00
12475;BME280;6302;42.624;23.334;2023-04-26T06:06:27;92387.94;;;10.70;100.00
12475;BME280;6302;42.624;23.334;2023-04-26T06:08:54;92386.53;;;10.81;100.00
12475;BME280;6302;42.624;23.334;2023-04-26T06:11:21;92376.75;;;10.94;100.00
12475;BME280;6302;42.624;23.334;2023-04-26T06:13:48;92383.47;;;10.99;100.00
12475;BME280;6302;42.624;23.334;2023-04-26T06:16:16;92387.59;;;11.16;100.00
12475;BME280;6302;42.624;23.334;2023-04-26T06:18:43;92387.16;;;11.34;100.00
12475;BME280;6302;42.624;23.334;2023-04-26T06:21:09;92383.22;;;11.38;100.00
12475;BME280;6302;42.624;23.334;2023-04-26T06:23:36;92394.22;;;11.24;100.00
12475;BME280;6302;42.624;23.334;2023-04-26T06:26:03;92392.00;;;11.06;100.00
12475;BME280;6302;42.624;23.334;2023-04-26T06:28:30;92396.31;;;11.00;100.00
12475;BME280;6302;42.624;23.334;2023-04-26T06:30:57;92392.00;;;10.90;100.00
12475;BME280;6302;42.624;23.334;2023-04-26T06:33:25;92393.25;;;10.86;100.00
12475;BME280;6302;42.624;23.334;2023-04-26T06:35:52;92392.19;;;10.83;100.00
12475;BME280;6302;42.624;23.334;2023-04-26T06:38:18;92399.34;;;10.67;100.00
12475;BME280;6302;42.624;23.334;2023-04-26T06:40:45;92395.22;;;10.66;100.00
12475;BME280;6302;42.624;23.334;2023-04-26T06:43:12;92400.94;;;10.64;100.00
12475;BME280;6302;42.624;23.334;2023-04-26T06:45:39;92399.34;;;10.67;100.00
12475;BME280;6302;42.624;23.334;2023-04-26T06:48:06;92398.94;;;10.52;100.00
12475;BME280;6302;42.624;23.334;2023-04-26T06:50:36;92395.47;;;10.55;100.00
12475;BME280;6302;42.624;23.334;2023-04-26T06:53:04;92394.31;;;10.56;100.00
12475;BME280;6302;42.624;23.334;2023-04-26T06:55:31;92402.66;;;10.55;100.00
12475;BME280;6302;42.624;23.334;2023-04-26T06:57:58;92393.56;;;10.56;100.00
12475;BME280;6302;42.624;23.334;2023-04-26T07:00:24;92403.66;;;10.61;100.00
12475;BME280;6302;42.624;23.334;2023-04-26T07:02:52;92408.72;;;10.55;100.00
12475;BME280;6302;42.624;23.334;2023-04-26T07:05:19;92408.28;;;10.57;100.00
12475;BME280;6302;42.624;23.334;2023-04-26T07:07:47;92411.41;;;10.71;100.00
12475;BME280;6302;42.624;23.334;2023-04-26T07:10:14;92408.00;;;10.71;100.00
12475;BME280;6302;42.624;23.334;2023-04-26T07:12:41;92405.41;;;10.67;100.00
12475;BME280;6302;42.624;23.334;2023-04-26T07:15:09;92417.69;;;10.77;100.00
12475;BME280;6302;42.624;23.334;2023-04-26T07:17:36;92392.84;;;10.71;100.00
12475;BME280;6302;42.624;23.334;2023-04-26T07:20:03;92405.00;;;10.85;100.00
12475;BME280;6302;42.624;23.334;2023-04-26T07:22:30;92400.03;;;10.87;100.00
12475;BME280;6302;42.624;23.334;2023-04-26T07:24:58;92393.66;;;11.00;100.00
12475;BME280;6302;42.624;23.334;2023-04-26T07:27:25;92404.56;;;11.35;100.00
12475;BME280;6302;42.624;23.334;2023-04-26T07:29:53;92412.88;;;11.21;100.00
12475;BME280;6302;42.624;23.334;2023-04-26T07:32:20;92406.56;;;11.15;100.00
12475;BME280;6302;42.624;23.334;2023-04-26T07:34:47;92408.38;;;11.34;100.00
12475;BME280;6302;42.624;23.334;2023-04-26T07:37:14;92405.53;;;11.41;100.00
12475;BME280;6302;42.624;23.334;2023-04-26T07:39:41;92413.03;;;11.30;100.00
12475;BME280;6302;42.624;23.334;2023-04-26T07:42:09;92420.56;;;11.31;100.00
12475;BME280;6302;42.624;23.334;2023-04-26T07:44:36;92405.50;;;11.28;100.00
12475;BME280;6302;42.624;23.334;2023-04-26T07:47:03;92414.06;;;11.48;100.00
12475;BME280;6302;42.624;23.334;2023-04-26T07:49:29;92415.31;;;11.44;100.00
12475;BME280;6302;42.624;23.334;2023-04-26T07:51:56;92418.06;;;11.24;100.00
12475;BME280;6302;42.624;23.334;2023-04-26T07:54:26;92422.13;;;11.29;100.00
12475;BME280;6302;42.624;23.334;2023-04-26T07:56:53;92411.41;;;11.03;100.00
12475;BME280;6302;42.624;23.334;2023-04-26T07:59:21;92420.75;;;11.08;100.00
12475;BME280;6302;42.624;23.334;2023-04-26T08:01:48;92414.63;;;10.95;100.00
12475;BME280;6302;42.624;23.334;2023-04-26T08:04:17;92419.00;;;11.18;100.00
12475;BME280;6302;42.624;23.334;2023-04-26T08:06:45;92410.50;;;11.39;100.00
12475;BME280;6302;42.624;23.334;2023-04-26T08:09:13;92418.31;;;11.30;100.00
12475;BME280;6302;42.624;23.334;2023-04-26T08:11:39;92413.38;;;11.16;100.00
12475;BME280;6302;42.624;23.334;2023-04-26T08:14:06;92412.53;;;11.19;100.00
12475;BME280;6302;42.624;23.334;2023-04-26T08:16:34;92418.69;;;10.99;100.00
12475;BME280;6302;42.624;23.334;2023-04-26T08:19:01;92409.53;;;11.17;100.00
12475;BME280;6302;42.624;23.334;2023-04-26T08:21:28;92417.69;;;11.26;100.00
12475;BME280;6302;42.624;23.334;2023-04-26T08:23:55;92420.97;;;11.30;100.00
12475;BME280;6302;42.624;23.334;2023-04-26T08:26:22;92426.94;;;11.34;100.00
12475;BME280;6302;42.624;23.334;2023-04-26T08:28:49;92444.59;;;11.24;100.00
12475;BME280;6302;42.624;23.334;2023-04-26T08:31:16;92419.25;;;11.23;100.00
12475;BME280;6302;42.624;23.334;2023-04-26T08:33:45;92429.13;;;11.23;100.00
12475;BME280;6302;42.624;23.334;2023-04-26T08:36:12;92447.16;;;11.44;100.00
12475;BME280;6302;42.624;23.334;2023-04-26T08:38:39;92425.69;;;11.38;100.00
12475;BME280;6302;42.624;23.334;2023-04-26T08:41:12;92428.00;;;11.36;100.00
12475;BME280;6302;42.624;23.334;2023-04-26T08:43:39;92421.81;;;11.27;100.00
12475;BME280;6302;42.624;23.334;2023-04-26T08:46:08;92421.88;;;11.39;100.00
12475;BME280;6302;42.624;23.334;2023-04-26T08:48:37;92426.84;;;11.37;100.00
12475;BME280;6302;42.624;23.334;2023-04-26T08:51:07;92425.53;;;11.45;100.00
12475;BME280;6302;42.624;23.334;2023-04-26T08:53:36;92437.53;;;11.50;100.00
12475;BME280;6302;42.624;23.334;2023-04-26T08:56:04;92430.91;;;11.42;99.61
12475;BME280;6302;42.624;23.334;2023-04-26T08:58:33;92431.91;;;11.48;100.00
12475;BME280;6302;42.624;23.334;2023-04-26T09:01:00;92433.88;;;11.44;100.00
12475;BME280;6302;42.624;23.334;2023-04-26T09:03:28;92439.03;;;11.35;100.00
12475;BME280;6302;42.624;23.334;2023-04-26T09:05:56;92437.72;;;11.27;100.00
12475;BME280;6302;42.624;23.334;2023-04-26T09:08:24;92439.38;;;11.37;100.00
12475;BME280;6302;42.624;23.334;2023-04-26T09:10:52;92441.34;;;11.49;100.00
12475;BME280;6302;42.624;23.334;2023-04-26T09:13:19;92443.66;;;11.47;99.88
12475;BME280;6302;42.624;23.334;2023-04-26T09:15:47;92448.59;;;11.61;100.00
12475;BME280;6302;42.624;23.334;2023-04-26T09:18:18;92446.78;;;11.74;97.91
12475;BME280;6302;42.624;23.334;2023-04-26T09:21:00;92443.41;;;11.57;100.00
12475;BME280;6302;42.624;23.334;2023-04-26T09:23:29;92455.78;;;11.48;98.84
12475;BME280;6302;42.624;23.334;2023-04-26T09:26:14;92452.09;;;11.58;98.35
12475;BME280;6302;42.624;23.334;2023-04-26T09:28:40;92454.19;;;11.50;100.00
12475;BME280;6302;42.624;23.334;2023-04-26T09:31:07;92457.75;;;11.60;100.00
12475;BME280;6302;42.624;23.334;2023-04-26T09:33:35;92464.88;;;11.79;98.83
12475;BME280;6302;42.624;23.334;2023-04-26T09:36:10;92457.22;;;11.81;96.75
12475;BME280;6302;42.624;23.334;2023-04-26T09:38:42;92453.03;;;11.96;99.42
12475;BME280;6302;42.624;23.334;2023-04-26T09:41:09;92451.81;;;12.13;96.40
12475;BME280;6302;42.624;23.334;2023-04-26T09:43:36;92446.06;;;12.02;97.18
12475;BME280;6302;42.624;23.334;2023-04-26T09:46:03;92439.03;;;12.08;98.83
12475;BME280;6302;42.624;23.334;2023-04-26T09:48:32;92440.59;;;12.22;97.56
12475;BME280;6302;42.624;23.334;2023-04-26T09:51:08;92438.66;;;12.22;92.40
12475;BME280;6302;42.624;23.334;2023-04-26T09:53:37;92448.13;;;12.23;90.70
12475;BME280;6302;42.624;23.334;2023-04-26T09:56:09;92446.97;;;12.24;92.27
12475;BME280;6302;42.624;23.334;2023-04-26T09:58:38;92446.97;;;12.50;92.64
12475;BME280;6302;42.624;23.334;2023-04-26T10:01:06;92437.13;;;12.63;90.32
12475;BME280;6302;42.624;23.334;2023-04-26T10:03:34;92440.75;;;12.69;88.79
12475;BME280;6302;42.624;23.334;2023-04-26T10:06:02;92447.03;;;13.00;91.56
12475;BME280;6302;42.624;23.334;2023-04-26T10:08:30;92436.25;;;13.03;90.77
12475;BME280;6302;42.624;23.334;2023-04-26T10:10:57;92452.03;;;13.11;89.13
12475;BME280;6302;42.624;23.334;2023-04-26T10:13:25;92431.69;;;13.04;88.56
12475;BME280;6302;42.624;23.334;2023-04-26T10:15:52;92428.09;;;13.23;87.08
12475;BME280;6302;42.624;23.334;2023-04-26T10:18:20;92432.94;;;13.37;85.83
12475;BME280;6302;42.624;23.334;2023-04-26T10:20:51;92434.13;;;13.36;87.18
12475;BME280;6302;42.624;23.334;2023-04-26T10:23:20;92438.91;;;13.41;85.14
12475;BME280;6302;42.624;23.334;2023-04-26T10:25:50;92430.75;;;13.11;83.76
12475;BME280;6302;42.624;23.334;2023-04-26T10:28:17;92439.13;;;12.84;83.46
12475;BME280;6302;42.624;23.334;2023-04-26T10:30:55;92428.72;;;12.89;84.88
12475;BME280;6302;42.624;23.334;2023-04-26T10:33:23;92426.59;;;12.97;84.28
12475;BME280;6302;42.624;23.334;2023-04-26T10:36:01;92425.97;;;12.93;83.59
12475;BME280;6302;42.624;23.334;2023-04-26T10:38:29;92416.09;;;12.81;82.17
12475;BME280;6302;42.624;23.334;2023-04-26T10:41:26;92428.31;;;12.91;84.04
12475;BME280;6302;42.624;23.334;2023-04-26T10:43:53;92431.28;;;12.68;84.68
12475;BME280;6302;42.624;23.334;2023-04-26T10:46:35;92425.34;;;12.64;84.73
12475;BME280;6302;42.624;23.334;2023-04-26T10:49:13;92423.41;;;12.77;82.43
12475;BME280;6302;42.624;23.334;2023-04-26T10:52:09;92421.19;;;12.63;81.83
12475;BME280;6302;42.624;23.334;2023-04-26T10:54:56;92418.09;;;12.89;86.56
12475;BME280;6302;42.624;23.334;2023-04-26T10:57:45;92434.03;;;13.27;82.49
12475;BME280;6302;42.624;23.334;2023-04-26T11:00:26;92424.97;;;13.37;80.13
12475;BME280;6302;42.624;23.334;2023-04-26T11:03:04;92425.84;;;13.22;76.85
12475;BME280;6302;42.624;23.334;2023-04-26T11:05:35;92420.53;;;13.22;78.23
12475;BME280;6302;42.624;23.334;2023-04-26T11:08:03;92423.72;;;13.17;77.07
12475;BME280;6302;42.624;23.334;2023-04-26T11:10:30;92426.91;;;13.12;74.97
12475;BME280;6302;42.624;23.334;2023-04-26T11:13:00;92426.50;;;13.13;77.53
12475;BME280;6302;42.624;23.334;2023-04-26T11:15:28;92420.75;;;13.15;75.64
12475;BME280;6302;42.624;23.334;2023-04-26T11:17:56;92418.47;;;13.38;75.24
12475;BME280;6302;42.624;23.334;2023-04-26T11:20:27;92424.19;;;13.49;75.52
12475;BME280;6302;42.624;23.334;2023-04-26T11:22:55;92426.66;;;13.31;75.89
12475;BME280;6302;42.624;23.334;2023-04-26T11:25:24;92431.06;;;13.25;75.03
12475;BME280;6302;42.624;23.334;2023-04-26T11:27:56;92417.00;;;13.25;76.13
12475;BME280;6302;42.624;23.334;2023-04-26T11:30:23;92422.97;;;13.16;73.50
12475;BME280;6302;42.624;23.334;2023-04-26T11:32:50;92427.88;;;13.30;75.14
12475;BME280;6302;42.624;23.334;2023-04-26T11:35:20;92425.47;;;13.45;73.19
12475;BME280;6302;42.624;23.334;2023-04-26T11:37:47;92428.19;;;13.66;71.19
12475;BME280;6302;42.624;23.334;2023-04-26T11:40:16;92430.53;;;13.64;71.05
12475;BME280;6302;42.624;23.334;2023-04-26T11:42:43;92425.34;;;13.48;73.10
12475;BME280;6302;42.624;23.334;2023-04-26T11:45:10;92424.53;;;13.39;71.78
12475;BME280;6302;42.624;23.334;2023-04-26T11:47:38;92413.47;;;13.40;73.16
12475;BME280;6302;42.624;23.334;2023-04-26T11:50:06;92429.09;;;13.38;72.62
12475;BME280;6302;42.624;23.334;2023-04-26T11:52:36;92423.69;;;13.29;72.92
12475;BME280;6302;42.624;23.334;2023-04-26T11:55:04;92429.03;;;13.29;72.89
12475;BME280;6302;42.624;23.334;2023-04-26T11:57:32;92423.78;;;13.38;75.37
12475;BME280;6302;42.624;23.334;2023-04-26T12:00:12;92419.47;;;13.53;73.70
12475;BME280;6302;42.624;23.334;2023-04-26T12:02:43;92407.41;;;13.40;72.16
12475;BME280;6302;42.624;23.334;2023-04-26T12:05:10;92419.22;;;13.39;72.79
12475;BME280;6302;42.624;23.334;2023-04-26T12:07:50;92406.56;;;13.30;72.03
12475;BME280;6302;42.624;23.334;2023-04-26T12:10:19;92413.53;;;13.49;76.36
12475;BME280;6302;42.624;23.334;2023-04-26T12:12:47;92406.09;;;13.44;70.39
12475;BME280;6302;42.624;23.334;2023-04-26T12:15:15;92397.88;;;13.51;72.73
12475;BME280;6302;42.624;23.334;2023-04-26T12:17:54;92400.88;;;13.41;72.52
12475;BME280;6302;42.624;23.334;2023-04-26T12:20:30;92407.22;;;13.56;73.12
12475;BME280;6302;42.624;23.334;2023-04-26T12:23:03;92404.47;;;13.59;70.82
12475;BME280;6302;42.624;23.334;2023-04-26T12:25:32;92406.91;;;13.54;72.57
12475;BME280;6302;42.624;23.334;2023-04-26T12:27:59;92400.59;;;13.26;72.14
12475;BME280;6302;42.624;23.334;2023-04-26T12:30:27;92410.31;;;13.20;71.85
12475;BME280;6302;42.624;23.334;2023-04-26T12:32:55;92404.47;;;13.25;73.36
12475;BME280;6302;42.624;23.334;2023-04-26T12:35:22;92392.53;;;13.30;70.27
12475;BME280;6302;42.624;23.334;2023-04-26T12:37:49;92409.22;;;13.43;70.92
12475;BME280;6302;42.624;23.334;2023-04-26T12:40:22;92397.81;;;13.42;69.44
12475;BME280;6302;42.624;23.334;2023-04-26T12:42:49;92398.13;;;13.44;69.36
12475;BME280;6302;42.624;23.334;2023-04-26T12:45:17;92390.56;;;13.43;71.24
12475;BME280;6302;42.624;23.334;2023-04-26T12:47:44;92394.44;;;13.29;72.56
12475;BME280;6302;42.624;23.334;2023-04-26T12:50:11;92389.41;;;13.31;72.32
12475;BME280;6302;42.624;23.334;2023-04-26T12:52:38;92386.06;;;13.18;73.11
12475;BME280;6302;42.624;23.334;2023-04-26T12:55:06;92389.78;;;13.21;73.74
12475;BME280;6302;42.624;23.334;2023-04-26T12:57:36;92393.94;;;13.09;75.01
12475;BME280;6302;42.624;23.334;2023-04-26T13:00:04;92398.25;;;13.28;74.41
12475;BME280;6302;42.624;23.334;2023-04-26T13:02:32;92401.03;;;13.37;75.08